Time;durP1;ratioP1;P1;durP2;ratioP2;P2;SDS_P1;SDS_P2;PMS_P1;PMS_P2;Temp;Humidity;BMP_temperature;BMP_pressure;BME280_temperature;BME280_humidity;BME280_pressure;Samples;Min_cycle;Max_cycle;Signal;HPM_P1;HPM_P2
2024/01/30 00:01:46;;;;;;;11.15;8.10;;;;;;;;;;5074406;28;20430;-81
2024/01/30 00:04:12;;;;;;;10.68;7.40;;;;;;;;;;5073938;28;20173;-82
2024/01/30 00:06:38;;;;;;;8.95;7.13;;;;;;;;;;5055950;28;20184;-81
2024/01/30 00:09:05;;;;;;;11.10;8.47;;;;;;;;;;5059082;28;20660;-81
2024/01/30 00:11:31;;;;;;;11.98;8.23;;;;;;;;;;5078045;28;20415;-81
2024/01/30 00:13:57;;;;;;;11.63;8.43;;;;;;;;;;5077734;28;20613;-81
2024/01/30 00:16:26;;;;;;;11.07;7.97;;;;;;;;;;5059808;28;20212;-81
2024/01/30 00:18:52;;;;;;;13.70;8.50;;;;;;;;;;5077825;28;20179;-81
2024/01/30 00:21:19;;;;;;;11.18;8.88;;;;;;;;;;5077542;28;20185;-82
2024/01/30 00:23:45;;;;;;;14.85;8.07;;;;;;;;;;5077994;28;20192;-81
2024/01/30 00:26:14;;;;;;;11.48;8.48;;;;;;;;;;5077370;28;20180;-81
2024/01/30 00:28:41;;;;;;;10.07;7.35;;;;;;;;;;5078054;28;20177;-81
2024/01/30 00:31:07;;;;;;;8.95;7.55;;;;;;;;;;5077661;28;20176;-81
2024/01/30 00:33:33;;;;;;;12.90;8.55;;;;;;;;;;5077406;28;20176;-81
2024/01/30 00:35:59;;;;;;;11.43;8.03;;;;;;;;;;5077663;28;20211;-81
2024/01/30 00:38:25;;;;;;;14.70;8.10;;;;;;;;;;5077455;28;20478;-82
2024/01/30 00:40:51;;;;;;;11.70;7.55;;;;;;;;;;5077684;28;20176;-81
2024/01/30 00:43:17;;;;;;;10.03;8.33;;;;;;;;;;5078042;28;20195;-82
2024/01/30 00:45:46;;;;;;;10.50;7.75;;;;;;;;;;5060465;28;20498;-81
2024/01/30 00:48:12;;;;;;;12.32;8.40;;;;;;;;;;5077515;28;20184;-81
2024/01/30 00:50:38;;;;;;;11.80;8.30;;;;;;;;;;5077157;28;20550;-81
2024/01/30 00:53:04;;;;;;;8.98;7.40;;;;;;;;;;5077566;28;20624;-81
2024/01/30 00:55:30;;;;;;;10.47;9.10;;;;;;;;;;5059976;28;20180;-82
2024/01/30 00:57:56;;;;;;;15.20;7.90;;;;;;;;;;5059257;28;20471;-82
2024/01/30 01:00:28;;;;;;;14.90;8.00;;;;;;;;;;5077229;28;20407;-82
2024/01/30 01:02:54;;;;;;;14.63;8.05;;;;;;;;;;5077217;28;20418;-82
2024/01/30 01:05:20;;;;;;;12.80;7.40;;;;;;;;;;5059182;28;20185;-82
2024/01/30 01:07:48;;;;;;;8.95;7.18;;;;;;;;;;5077555;28;20481;-82
2024/01/30 01:10:14;;;;;;;10.15;7.00;;;;;;;;;;5077152;28;20192;-82
2024/01/30 01:12:40;;;;;;;12.20;8.45;;;;;;;;;;5077012;28;20169;-82
2024/01/30 01:15:09;;;;;;;12.15;8.70;;;;;;;;;;5076857;28;20625;-82
2024/01/30 01:17:35;;;;;;;9.30;8.07;;;;;;;;;;5077072;28;20204;-82
2024/01/30 01:20:01;;;;;;;15.27;9.02;;;;;;;;;;5076145;28;20195;-82
2024/01/30 01:22:27;;;;;;;8.07;6.93;;;;;;;;;;5076967;28;20177;-82
2024/01/30 01:24:53;;;;;;;14.02;8.27;;;;;;;;;;5077090;28;20460;-82
2024/01/30 01:27:19;;;;;;;10.33;7.80;;;;;;;;;;5076601;28;20645;-83
2024/01/30 01:29:45;;;;;;;10.73;8.50;;;;;;;;;;5076964;28;20399;-82
2024/01/30 01:32:11;;;;;;;9.88;8.25;;;;;;;;;;5076691;28;20403;-82
2024/01/30 01:34:37;;;;;;;14.15;8.10;;;;;;;;;;5076989;28;20212;-82
2024/01/30 01:37:03;;;;;;;10.30;8.03;;;;;;;;;;5076397;28;20216;-82
2024/01/30 01:39:29;;;;;;;21.45;9.10;;;;;;;;;;5077021;28;21001;-82
2024/01/30 01:41:55;;;;;;;12.70;8.07;;;;;;;;;;5076655;28;20180;-82
2024/01/30 01:44:21;;;;;;;8.83;7.60;;;;;;;;;;5058397;28;20449;-82
2024/01/30 01:46:48;;;;;;;13.07;8.43;;;;;;;;;;5076871;28;20914;-82
2024/01/30 01:49:14;;;;;;;12.00;7.50;;;;;;;;;;5076647;28;20399;-82
2024/01/30 01:51:41;;;;;;;9.10;7.63;;;;;;;;;;5076170;28;20188;-82
2024/01/30 01:54:07;;;;;;;13.10;6.95;;;;;;;;;;5076607;28;20181;-82
2024/01/30 01:56:34;;;;;;;12.27;7.97;;;;;;;;;;5076235;28;20212;-83
2024/01/30 01:59:07;;;;;;;10.68;8.63;;;;;;;;;;5076339;28;20524;-82
2024/01/30 02:01:33;;;;;;;14.63;7.40;;;;;;;;;;5075615;28;20263;-82
2024/01/30 02:04:00;;;;;;;21.55;7.88;;;;;;;;;;5076031;28;20707;-82
2024/01/30 02:06:26;;;;;;;12.13;7.78;;;;;;;;;;5076109;28;20187;-82
2024/01/30 02:08:52;;;;;;;15.18;8.13;;;;;;;;;;5058007;28;20196;-82
2024/01/30 02:11:19;;;;;;;11.45;7.28;;;;;;;;;;5076080;28;20169;-84
2024/01/30 02:13:45;;;;;;;11.25;7.68;;;;;;;;;;5058007;28;20192;-82
2024/01/30 02:16:10;;;;;;;10.90;8.57;;;;;;;;;;5075996;28;20260;-82
2024/01/30 02:18:41;;;;;;;13.60;8.00;;;;;;;;;;5075898;28;20848;-82
2024/01/30 02:21:08;;;;;;;11.40;7.53;;;;;;;;;;5076730;28;20445;-82
2024/01/30 02:23:34;;;;;;;12.07;7.80;;;;;;;;;;5075990;28;20172;-82
2024/01/30 02:26:00;;;;;;;12.10;8.63;;;;;;;;;;5076052;28;20505;-82
2024/01/30 02:28:27;;;;;;;12.85;8.63;;;;;;;;;;5076027;28;20169;-82
2024/01/30 02:30:53;;;;;;;11.70;8.55;;;;;;;;;;5075472;28;20230;-82
2024/01/30 02:33:21;;;;;;;12.98;8.25;;;;;;;;;;5075665;28;20178;-82
2024/01/30 02:35:47;;;;;;;11.68;7.78;;;;;;;;;;5075711;28;20161;-82
2024/01/30 02:38:13;;;;;;;12.82;8.20;;;;;;;;;;5075016;28;20188;-82
2024/01/30 02:40:39;;;;;;;14.27;7.23;;;;;;;;;;5057718;28;20565;-82
2024/01/30 02:43:05;;;;;;;16.52;7.65;;;;;;;;;;5075564;28;20418;-82
2024/01/30 02:45:31;;;;;;;11.38;7.13;;;;;;;;;;5057345;28;20192;-82
2024/01/30 02:47:57;;;;;;;11.02;7.65;;;;;;;;;;5057371;28;20177;-82
2024/01/30 02:50:23;;;;;;;18.23;7.77;;;;;;;;;;5075036;28;20189;-82
2024/01/30 02:52:49;;;;;;;10.07;7.18;;;;;;;;;;5075207;28;20458;-82
2024/01/30 02:55:17;;;;;;;14.80;7.73;;;;;;;;;;5075156;28;20185;-82
2024/01/30 02:57:43;;;;;;;10.70;7.60;;;;;;;;;;5074415;28;20803;-82
2024/01/30 03:00:10;;;;;;;14.05;7.80;;;;;;;;;;5074990;28;20175;-82
2024/01/30 03:02:36;;;;;;;10.57;7.35;;;;;;;;;;5057074;28;20275;-82
2024/01/30 03:05:03;;;;;;;14.27;7.35;;;;;;;;;;5072237;28;20263;-83
2024/01/30 03:07:29;;;;;;;16.38;6.78;;;;;;;;;;5055473;28;20193;-82
2024/01/30 03:09:56;;;;;;;9.93;6.70;;;;;;;;;;5055597;28;20181;-82
2024/01/30 03:12:22;;;;;;;12.10;7.60;;;;;;;;;;5059165;28;20192;-82
2024/01/30 03:14:49;;;;;;;10.40;6.82;;;;;;;;;;5056850;28;20727;-82
2024/01/30 03:17:15;;;;;;;11.00;7.60;;;;;;;;;;5055295;28;20205;-82
2024/01/30 03:19:41;;;;;;;12.57;6.95;;;;;;;;;;5060223;28;20652;-82
2024/01/30 03:22:07;;;;;;;14.90;7.00;;;;;;;;;;5074813;28;20192;-82
2024/01/30 03:24:33;;;;;;;10.63;7.75;;;;;;;;;;5074846;28;20441;-82
2024/01/30 03:26:59;;;;;;;10.13;7.23;;;;;;;;;;5074831;28;20176;-82
2024/01/30 03:29:25;;;;;;;9.90;6.93;;;;;;;;;;5075211;28;20424;-83
2024/01/30 03:31:51;;;;;;;15.23;7.53;;;;;;;;;;5057065;28;20184;-81
2024/01/30 03:34:17;;;;;;;11.02;7.47;;;;;;;;;;5056777;28;20430;-82
2024/01/30 03:36:42;;;;;;;12.07;7.30;;;;;;;;;;5056511;28;20216;-83
2024/01/30 03:39:08;;;;;;;10.77;6.97;;;;;;;;;;5074588;28;20489;-82
2024/01/30 03:41:34;;;;;;;10.27;7.80;;;;;;;;;;5074388;28;20906;-82
2024/01/30 03:44:00;;;;;;;10.53;7.03;;;;;;;;;;5077428;28;20469;-82
2024/01/30 03:46:26;;;;;;;9.40;6.60;;;;;;;;;;5078968;28;20403;-82
2024/01/30 03:48:53;;;;;;;9.52;6.95;;;;;;;;;;5079166;28;20501;-82
2024/01/30 03:51:19;;;;;;;10.18;6.80;;;;;;;;;;5079515;28;20173;-82
2024/01/30 03:53:48;;;;;;;8.77;6.32;;;;;;;;;;5078983;28;20521;-82
2024/01/30 03:56:14;;;;;;;9.43;7.20;;;;;;;;;;5072859;28;20205;-82
2024/01/30 03:58:41;;;;;;;12.48;7.00;;;;;;;;;;5079872;28;20177;-82
2024/01/30 04:01:07;;;;;;;12.75;6.70;;;;;;;;;;5078696;28;20215;-82
2024/01/30 04:03:33;;;;;;;13.27;6.37;;;;;;;;;;5077871;28;20185;-82
2024/01/30 04:05:59;;;;;;;10.40;7.15;;;;;;;;;;5061283;28;20941;-81
2024/01/30 04:08:25;;;;;;;8.98;6.75;;;;;;;;;;5061255;28;20180;-82
2024/01/30 04:10:51;;;;;;;10.57;6.93;;;;;;;;;;5092264;28;20184;-81
2024/01/30 04:13:17;;;;;;;12.50;8.10;;;;;;;;;;5083989;28;20292;-81
2024/01/30 04:15:42;;;;;;;10.77;6.30;;;;;;;;;;5079893;28;20418;-81
2024/01/30 04:18:09;;;;;;;7.63;6.37;;;;;;;;;;5080088;28;20949;-82
2024/01/30 04:20:35;;;;;;;9.32;7.32;;;;;;;;;;5078575;28;20446;-82
2024/01/30 04:23:01;;;;;;;8.67;5.80;;;;;;;;;;5081248;28;20191;-82
2024/01/30 04:25:27;;;;;;;11.20;6.70;;;;;;;;;;5083251;28;20807;-82
2024/01/30 04:27:53;;;;;;;10.43;6.90;;;;;;;;;;5078283;28;20464;-82
2024/01/30 04:30:19;;;;;;;12.57;6.30;;;;;;;;;;5077674;28;20173;-82
2024/01/30 04:32:45;;;;;;;12.93;6.40;;;;;;;;;;5078060;28;20184;-82
2024/01/30 04:35:11;;;;;;;11.70;6.90;;;;;;;;;;5077460;28;20490;-82
2024/01/30 04:37:37;;;;;;;9.52;7.10;;;;;;;;;;5077176;28;20492;-82
2024/01/30 04:40:03;;;;;;;11.50;6.47;;;;;;;;;;5077627;28;20232;-82
2024/01/30 04:42:29;;;;;;;9.43;6.68;;;;;;;;;;5077501;28;20490;-82
2024/01/30 04:44:55;;;;;;;10.38;6.40;;;;;;;;;;5077848;28;20187;-82
2024/01/30 04:47:21;;;;;;;10.33;6.53;;;;;;;;;;5077632;28;20177;-82
2024/01/30 04:49:47;;;;;;;13.50;7.40;;;;;;;;;;5076871;28;20411;-82
2024/01/30 04:52:14;;;;;;;9.05;7.25;;;;;;;;;;5075507;28;20510;-82
2024/01/30 04:54:40;;;;;;;8.52;6.28;;;;;;;;;;5057922;28;20178;-82
2024/01/30 04:57:09;;;;;;;9.43;6.37;;;;;;;;;;5057512;28;20216;-82
2024/01/30 04:59:36;;;;;;;9.68;7.05;;;;;;;;;;5056613;28;20956;-82
2024/01/30 05:02:02;;;;;;;11.27;6.93;;;;;;;;;;5057743;28;20584;-82
2024/01/30 05:04:28;;;;;;;13.77;7.13;;;;;;;;;;5039287;28;20223;-82
2024/01/30 05:06:54;;;;;;;10.30;7.30;;;;;;;;;;5056654;28;20189;-82
2024/01/30 05:09:20;;;;;;;8.30;6.80;;;;;;;;;;5057292;28;20435;-82
2024/01/30 05:11:46;;;;;;;9.48;6.68;;;;;;;;;;5039175;28;20908;-82
2024/01/30 05:14:14;;;;;;;8.33;6.47;;;;;;;;;;5057326;28;20246;-82
2024/01/30 05:16:41;;;;;;;9.05;6.50;;;;;;;;;;5060488;28;20476;-82
2024/01/30 05:19:07;;;;;;;9.45;6.95;;;;;;;;;;5065207;28;20595;-82
2024/01/30 05:21:33;;;;;;;8.80;6.28;;;;;;;;;;5070141;28;20189;-82
2024/01/30 05:23:59;;;;;;;11.60;7.27;;;;;;;;;;5056678;28;20177;-82
2024/01/30 05:26:24;;;;;;;10.33;7.03;;;;;;;;;;5039483;28;20435;-82
2024/01/30 05:28:51;;;;;;;11.17;6.87;;;;;;;;;;5056613;28;20408;-82
2024/01/30 05:31:17;;;;;;;10.40;7.32;;;;;;;;;;5063238;28;20399;-82
2024/01/30 05:33:43;;;;;;;9.67;7.47;;;;;;;;;;5077112;28;20225;-82
2024/01/30 05:36:12;;;;;;;12.10;7.90;;;;;;;;;;5076849;28;20466;-82
2024/01/30 05:38:38;;;;;;;9.93;7.13;;;;;;;;;;5076372;28;20241;-82
2024/01/30 05:41:04;;;;;;;10.80;6.93;;;;;;;;;;5076686;28;20543;-82
2024/01/30 05:43:30;;;;;;;10.23;7.40;;;;;;;;;;5077141;28;20418;-82
2024/01/30 05:45:56;;;;;;;10.00;7.60;;;;;;;;;;5076395;28;20181;-82
2024/01/30 05:48:22;;;;;;;14.02;8.07;;;;;;;;;;5076470;28;20510;-81
2024/01/30 05:50:48;;;;;;;9.97;7.97;;;;;;;;;;5076036;28;20725;-82
2024/01/30 05:53:14;;;;;;;15.77;7.90;;;;;;;;;;5076839;28;20406;-82
2024/01/30 05:55:40;;;;;;;12.63;8.32;;;;;;;;;;5058542;28;20411;-82
2024/01/30 05:58:06;;;;;;;10.57;7.32;;;;;;;;;;5076594;28;20236;-82
2024/01/30 06:00:32;;;;;;;9.80;7.90;;;;;;;;;;5076652;28;20188;-82
2024/01/30 06:02:58;;;;;;;11.00;8.25;;;;;;;;;;5076613;28;20399;-82
2024/01/30 06:05:24;;;;;;;9.80;7.60;;;;;;;;;;5058381;28;20263;-82
2024/01/30 06:07:50;;;;;;;10.47;7.90;;;;;;;;;;5075859;28;20427;-81
2024/01/30 06:10:15;;;;;;;12.87;7.87;;;;;;;;;;5057973;28;20556;-82
2024/01/30 06:12:41;;;;;;;11.80;8.10;;;;;;;;;;5076552;28;20965;-82
2024/01/30 06:15:08;;;;;;;9.65;7.55;;;;;;;;;;5058606;28;20415;-82
2024/01/30 06:17:34;;;;;;;8.82;7.45;;;;;;;;;;5075923;28;20232;-83
2024/01/30 06:20:00;;;;;;;13.43;8.10;;;;;;;;;;5076364;28;20230;-82
2024/01/30 06:22:25;;;;;;;10.27;7.50;;;;;;;;;;5058671;28;20419;-82
2024/01/30 06:24:51;;;;;;;11.87;7.70;;;;;;;;;;5075912;28;20403;-82
2024/01/30 06:27:18;;;;;;;9.73;7.10;;;;;;;;;;5075995;28;20418;-82
2024/01/30 06:29:44;;;;;;;12.25;8.40;;;;;;;;;;5075753;28;20778;-82
2024/01/30 06:32:10;;;;;;;10.30;8.45;;;;;;;;;;5075832;28;20169;-82
2024/01/30 06:34:36;;;;;;;14.93;7.80;;;;;;;;;;5075250;28;20519;-83
2024/01/30 06:37:02;;;;;;;12.32;7.72;;;;;;;;;;5075913;28;20465;-82
2024/01/30 06:39:28;;;;;;;11.25;7.47;;;;;;;;;;5076080;28;20217;-82
2024/01/30 06:41:54;;;;;;;13.00;8.48;;;;;;;;;;5075678;28;20173;-81
2024/01/30 06:44:20;;;;;;;11.57;7.50;;;;;;;;;;5075830;28;20250;-82
2024/01/30 06:46:46;;;;;;;9.13;6.73;;;;;;;;;;5075586;28;20403;-82
2024/01/30 06:49:12;;;;;;;11.10;7.63;;;;;;;;;;5075860;28;20411;-82
2024/01/30 06:51:38;;;;;;;10.70;7.60;;;;;;;;;;5075177;28;20252;-82
2024/01/30 06:54:04;;;;;;;11.93;8.50;;;;;;;;;;5061629;28;20432;-82
2024/01/30 06:56:30;;;;;;;9.45;7.47;;;;;;;;;;5055876;28;20467;-82
2024/01/30 06:58:58;;;;;;;13.50;8.30;;;;;;;;;;5055895;28;20210;-82
2024/01/30 07:01:28;;;;;;;9.90;7.45;;;;;;;;;;5054981;28;20439;-82
2024/01/30 07:03:54;;;;;;;9.43;7.35;;;;;;;;;;5055511;28;20194;-82
2024/01/30 07:06:20;;;;;;;13.90;8.97;;;;;;;;;;5040717;28;20272;-82
2024/01/30 07:08:46;;;;;;;9.98;7.40;;;;;;;;;;5056265;28;20408;-82
2024/01/30 07:11:19;;;;;;;13.43;8.00;;;;;;;;;;5055842;28;20176;-81
2024/01/30 07:13:45;;;;;;;12.93;7.20;;;;;;;;;;5054711;28;20181;-82
2024/01/30 07:16:11;;;;;;;13.60;8.18;;;;;;;;;;5054683;28;20212;-82
2024/01/30 07:18:36;;;;;;;13.23;8.20;;;;;;;;;;5062477;28;20180;-82
2024/01/30 07:21:02;;;;;;;12.93;8.13;;;;;;;;;;5076019;28;20498;-82
2024/01/30 07:23:29;;;;;;;12.15;9.18;;;;;;;;;;5068107;28;20415;-82
2024/01/30 07:25:55;;;;;;;10.88;8.40;;;;;;;;;;5037133;28;20211;-82
2024/01/30 07:28:21;;;;;;;10.33;7.43;;;;;;;;;;5036737;28;20289;-82
2024/01/30 07:30:48;;;;;;;10.10;7.72;;;;;;;;;;5055208;28;20404;-82
2024/01/30 07:33:14;;;;;;;11.10;7.60;;;;;;;;;;5055027;28;20170;-82
2024/01/30 07:35:40;;;;;;;11.27;7.55;;;;;;;;;;5055246;28;20258;-83
2024/01/30 07:38:06;;;;;;;11.50;7.67;;;;;;;;;;5054613;28;20672;-82
2024/01/30 07:40:33;;;;;;;12.25;8.20;;;;;;;;;;5059749;28;20793;-82
2024/01/30 07:42:59;;;;;;;12.82;8.55;;;;;;;;;;5057028;28;20189;-82
2024/01/30 07:45:27;;;;;;;12.50;8.52;;;;;;;;;;5074359;28;20173;-82
2024/01/30 07:47:53;;;;;;;10.18;8.52;;;;;;;;;;5075410;28;20191;-82
2024/01/30 07:50:19;;;;;;;9.40;7.33;;;;;;;;;;5075584;28;20610;-82
2024/01/30 07:52:45;;;;;;;15.20;7.53;;;;;;;;;;5075081;28;20407;-83
2024/01/30 07:55:12;;;;;;;12.90;8.20;;;;;;;;;;5055497;28;20412;-80
2024/01/30 07:57:39;;;;;;;12.00;8.20;;;;;;;;;;5055213;28;20292;-80
2024/01/30 08:00:07;;;;;;;10.38;7.45;;;;;;;;;;5054685;28;20178;-80
2024/01/30 08:02:33;;;;;;;13.73;8.35;;;;;;;;;;5047383;28;20181;-80
2024/01/30 08:04:59;;;;;;;14.88;8.48;;;;;;;;;;5074901;28;20181;-80
2024/01/30 08:07:25;;;;;;;10.30;7.80;;;;;;;;;;5065355;28;20557;-79
2024/01/30 08:09:51;;;;;;;14.00;8.50;;;;;;;;;;5054560;28;20829;-79
2024/01/30 08:12:17;;;;;;;14.13;7.70;;;;;;;;;;5054691;28;20407;-80
2024/01/30 08:14:43;;;;;;;12.70;7.50;;;;;;;;;;5054570;28;20280;-80
2024/01/30 08:17:09;;;;;;;10.73;8.33;;;;;;;;;;5054787;28;20255;-79
2024/01/30 08:19:35;;;;;;;13.10;8.40;;;;;;;;;;5082119;28;20485;-79
2024/01/30 08:22:01;;;;;;;9.90;7.60;;;;;;;;;;5079242;28;20792;-80
2024/01/30 08:24:27;;;;;;;14.33;8.80;;;;;;;;;;5074420;28;20407;-80
2024/01/30 08:26:53;;;;;;;10.40;7.20;;;;;;;;;;5074688;28;20407;-80
2024/01/30 08:29:19;;;;;;;10.23;6.93;;;;;;;;;;5075955;28;20944;-80
2024/01/30 08:31:46;;;;;;;10.43;7.13;;;;;;;;;;5078506;28;20779;-80
2024/01/30 08:34:12;;;;;;;13.05;7.85;;;;;;;;;;5061237;28;20709;-79
2024/01/30 08:36:38;;;;;;;10.65;8.25;;;;;;;;;;5058247;28;20209;-80
2024/01/30 08:39:05;;;;;;;9.82;7.43;;;;;;;;;;5061550;28;20760;-80
2024/01/30 08:41:31;;;;;;;9.63;7.63;;;;;;;;;;5077200;28;20177;-79
2024/01/30 08:43:57;;;;;;;12.13;7.00;;;;;;;;;;5077896;28;20590;-79
2024/01/30 08:46:23;;;;;;;9.10;7.30;;;;;;;;;;5061018;28;20215;-80
2024/01/30 08:48:49;;;;;;;13.07;7.53;;;;;;;;;;5078293;28;20445;-79
2024/01/30 08:51:15;;;;;;;8.77;6.82;;;;;;;;;;5077878;28;20769;-79
2024/01/30 08:53:44;;;;;;;8.40;6.60;;;;;;;;;;5077739;28;20187;-80
2024/01/30 08:56:10;;;;;;;12.05;6.95;;;;;;;;;;5077303;28;20176;-80
2024/01/30 08:58:36;;;;;;;10.57;6.50;;;;;;;;;;5077538;28;20180;-80
2024/01/30 09:01:03;;;;;;;10.27;6.07;;;;;;;;;;5077211;28;20396;-80
2024/01/30 09:03:29;;;;;;;11.05;6.65;;;;;;;;;;5077370;28;20398;-80
2024/01/30 09:05:55;;;;;;;9.60;6.67;;;;;;;;;;5077285;28;20176;-80
2024/01/30 09:08:21;;;;;;;9.73;6.80;;;;;;;;;;5062865;28;20435;-80
2024/01/30 09:10:48;;;;;;;8.60;6.60;;;;;;;;;;5073582;28;20404;-81
2024/01/30 09:13:14;;;;;;;12.85;7.25;;;;;;;;;;5076549;28;20434;-79
2024/01/30 09:15:40;;;;;;;9.63;7.72;;;;;;;;;;5075946;28;20189;-79
2024/01/30 09:18:06;;;;;;;9.70;6.70;;;;;;;;;;5074477;28;20212;-79
2024/01/30 09:20:32;;;;;;;14.90;7.07;;;;;;;;;;5058899;28;20469;-79
2024/01/30 09:22:58;;;;;;;11.17;7.07;;;;;;;;;;5057486;28;20621;-80
2024/01/30 09:25:24;;;;;;;12.03;7.30;;;;;;;;;;5062932;28;20874;-80
2024/01/30 09:27:50;;;;;;;11.37;6.67;;;;;;;;;;5076838;28;20455;-78
2024/01/30 09:30:16;;;;;;;10.13;6.20;;;;;;;;;;5077899;28;20404;-77
2024/01/30 09:32:43;;;;;;;11.45;7.03;;;;;;;;;;5077334;28;20404;-78
2024/01/30 09:35:09;;;;;;;10.27;6.43;;;;;;;;;;5076694;28;20247;-78
2024/01/30 09:37:35;;;;;;;11.90;6.70;;;;;;;;;;5069730;28;20205;-80
2024/01/30 09:40:01;;;;;;;10.83;6.60;;;;;;;;;;5056700;28;20580;-81
2024/01/30 09:42:36;;;;;;;12.87;7.80;;;;;;;;;;5069241;28;20437;-79
2024/01/30 09:45:03;;;;;;;13.27;6.88;;;;;;;;;;5076701;28;20792;-79
2024/01/30 09:47:31;;;;;;;12.07;6.80;;;;;;;;;;5077040;28;20234;-77
2024/01/30 09:49:59;;;;;;;10.07;6.85;;;;;;;;;;5078434;28;20264;-78
2024/01/30 09:52:25;;;;;;;8.97;7.20;;;;;;;;;;5077849;28;20263;-78
2024/01/30 09:54:52;;;;;;;9.40;6.73;;;;;;;;;;5075908;28;20977;-78
2024/01/30 09:57:18;;;;;;;8.83;6.90;;;;;;;;;;5076503;28;20499;-79
2024/01/30 09:59:44;;;;;;;13.60;6.88;;;;;;;;;;5076979;28;20423;-78
2024/01/30 10:02:10;;;;;;;8.02;5.93;;;;;;;;;;5076321;28;20184;-78
2024/01/30 10:04:36;;;;;;;7.97;6.80;;;;;;;;;;5076481;28;20199;-80
2024/01/30 10:07:03;;;;;;;9.90;6.23;;;;;;;;;;5076179;28;20189;-79
2024/01/30 10:09:32;;;;;;;10.60;6.40;;;;;;;;;;5076190;28;20480;-78
2024/01/30 10:11:58;;;;;;;14.50;6.50;;;;;;;;;;5076499;28;20173;-78
2024/01/30 10:14:25;;;;;;;8.27;6.72;;;;;;;;;;5076848;28;20536;-78
2024/01/30 10:16:51;;;;;;;10.52;6.47;;;;;;;;;;5076936;28;20219;-78
2024/01/30 10:19:17;;;;;;;9.20;6.07;;;;;;;;;;5076306;28;20581;-79
2024/01/30 10:21:43;;;;;;;10.37;6.10;;;;;;;;;;5076428;28;20403;-79
2024/01/30 10:24:12;;;;;;;9.20;6.20;;;;;;;;;;5076401;28;20918;-79
2024/01/30 10:26:38;;;;;;;8.53;6.40;;;;;;;;;;5075861;28;20426;-78
2024/01/30 10:29:05;;;;;;;15.73;6.50;;;;;;;;;;5075581;28;20762;-78
2024/01/30 10:31:31;;;;;;;8.73;6.43;;;;;;;;;;5075739;28;20175;-78
2024/01/30 10:33:57;;;;;;;8.40;6.70;;;;;;;;;;5076455;28;20411;-77
2024/01/30 10:36:27;;;;;;;8.60;6.70;;;;;;;;;;5075798;28;20459;-80
2024/01/30 10:38:55;;;;;;;6.50;5.43;;;;;;;;;;5074958;28;20553;-81
2024/01/30 10:41:25;;;;;;;9.27;6.17;;;;;;;;;;5075595;28;20173;-80
2024/01/30 10:43:56;;;;;;;8.17;5.80;;;;;;;;;;5075618;28;20894;-78
2024/01/30 10:46:26;;;;;;;9.73;7.30;;;;;;;;;;5076142;28;20390;-80
2024/01/30 10:49:01;;;;;;;13.03;6.00;;;;;;;;;;5075511;28;20456;-80
2024/01/30 10:51:27;;;;;;;13.47;9.83;;;;;;;;;;5057062;28;20417;-80
2024/01/30 10:53:53;;;;;;;12.87;8.70;;;;;;;;;;5060530;28;20507;-81
2024/01/30 10:56:23;;;;;;;11.57;7.00;;;;;;;;;;5055335;28;20477;-80
2024/01/30 10:58:53;;;;;;;8.70;5.60;;;;;;;;;;5055684;28;20419;-80
2024/01/30 11:01:22;;;;;;;9.63;5.83;;;;;;;;;;5055007;28;20392;-78
2024/01/30 11:03:48;;;;;;;8.90;6.53;;;;;;;;;;5055225;28;20427;-80
2024/01/30 11:06:18;;;;;;;9.87;7.23;;;;;;;;;;5055818;28;20401;-80
2024/01/30 11:08:44;;;;;;;14.27;8.80;;;;;;;;;;5055138;28;20477;-78
2024/01/30 11:11:10;;;;;;;10.90;7.00;;;;;;;;;;5054749;28;20436;-78
2024/01/30 11:13:36;;;;;;;11.10;7.73;;;;;;;;;;5055296;28;20839;-77
2024/01/30 11:16:06;;;;;;;13.63;7.40;;;;;;;;;;5055008;28;20771;-78
2024/01/30 11:18:32;;;;;;;8.03;6.20;;;;;;;;;;5055767;28;20443;-77
2024/01/30 11:21:00;;;;;;;8.63;6.13;;;;;;;;;;5055067;28;20418;-81
2024/01/30 11:23:27;;;;;;;10.63;6.77;;;;;;;;;;5055409;28;20447;-80
2024/01/30 11:25:56;;;;;;;11.50;7.43;;;;;;;;;;5057565;28;20440;-80
2024/01/30 11:28:23;;;;;;;9.63;6.80;;;;;;;;;;5054678;28;20767;-78
2024/01/30 11:30:50;;;;;;;9.40;7.63;;;;;;;;;;5054851;28;20431;-78
2024/01/30 11:33:16;;;;;;;8.70;7.00;;;;;;;;;;5054603;28;20408;-78
2024/01/30 11:35:43;;;;;;;6.90;5.80;;;;;;;;;;5054613;28;20495;-79
2024/01/30 11:38:10;;;;;;;10.70;6.30;;;;;;;;;;5054107;28;20515;-80
2024/01/30 11:40:37;;;;;;;9.60;6.33;;;;;;;;;;5054308;28;20416;-79
2024/01/30 11:43:07;;;;;;;14.00;8.60;;;;;;;;;;5054501;28;20553;-79
2024/01/30 11:45:33;;;;;;;14.47;8.23;;;;;;;;;;5054714;28;20514;-79
2024/01/30 11:48:07;;;;;;;17.27;8.53;;;;;;;;;;5054761;28;20754;-80
2024/01/30 11:50:33;;;;;;;7.37;5.60;;;;;;;;;;5054750;28;20419;-79
2024/01/30 11:53:00;;;;;;;7.50;5.90;;;;;;;;;;5065573;28;20432;-79
2024/01/30 11:55:26;;;;;;;12.60;5.80;;;;;;;;;;5059214;28;20408;-79
2024/01/30 11:57:56;;;;;;;14.70;8.90;;;;;;;;;;5064831;28;20557;-79
2024/01/30 12:00:22;;;;;;;9.80;6.50;;;;;;;;;;5074591;28;20549;-79
2024/01/30 12:02:55;;;;;;;12.93;8.03;;;;;;;;;;5074515;28;20403;-79
2024/01/30 12:05:21;;;;;;;10.23;6.63;;;;;;;;;;5077740;28;20414;-79
2024/01/30 12:07:47;;;;;;;15.80;10.60;;;;;;;;;;5078185;28;20517;-79
2024/01/30 12:10:17;;;;;;;10.43;6.73;;;;;;;;;;5078569;28;20442;-79
2024/01/30 12:12:44;;;;;;;16.60;8.70;;;;;;;;;;5078340;28;20417;-80
2024/01/30 12:15:10;;;;;;;10.53;6.07;;;;;;;;;;5078423;28;20399;-79
2024/01/30 12:17:37;;;;;;;12.00;6.00;;;;;;;;;;5059375;28;20467;-79
2024/01/30 12:20:16;;;;;;;14.63;5.13;;;;;;;;;;5057962;28;20412;-80
2024/01/30 12:22:48;;;;;;;6.17;5.37;;;;;;;;;;5057805;28;20412;-79
2024/01/30 12:25:15;;;;;;;11.10;5.53;;;;;;;;;;5057408;28;20472;-79
2024/01/30 12:27:51;;;;;;;9.93;5.57;;;;;;;;;;5057950;28;20506;-79
2024/01/30 12:30:17;;;;;;;9.33;4.50;;;;;;;;;;5058029;28;20457;-79
2024/01/30 12:32:44;;;;;;;10.37;4.80;;;;;;;;;;5058210;28;20814;-80
2024/01/30 12:35:11;;;;;;;14.33;4.90;;;;;;;;;;5077847;28;20370;-79
2024/01/30 12:37:37;;;;;;;7.70;4.97;;;;;;;;;;5078026;28;20651;-79
2024/01/30 12:40:03;;;;;;;8.50;3.97;;;;;;;;;;5077393;28;20993;-79
2024/01/30 12:42:29;;;;;;;8.43;4.33;;;;;;;;;;5077708;28;20446;-79
2024/01/30 12:44:58;;;;;;;5.97;4.33;;;;;;;;;;5077645;28;20500;-79
2024/01/30 12:47:24;;;;;;;11.63;5.70;;;;;;;;;;5077390;28;20476;-80
2024/01/30 12:49:53;;;;;;;13.80;5.40;;;;;;;;;;5077348;28;20419;-79
2024/01/30 12:52:20;;;;;;;8.40;4.50;;;;;;;;;;5069967;28;20926;-79
2024/01/30 12:54:46;;;;;;;17.17;4.93;;;;;;;;;;5057687;28;20408;-79
2024/01/30 12:57:12;;;;;;;10.13;4.83;;;;;;;;;;5050305;28;20467;-79
2024/01/30 12:59:39;;;;;;;12.77;5.60;;;;;;;;;;5057454;28;20504;-79
2024/01/30 13:02:05;;;;;;;8.73;4.60;;;;;;;;;;5057459;28;20407;-80
2024/01/30 13:04:31;;;;;;;13.43;6.00;;;;;;;;;;5057474;28;20432;-80
2024/01/30 13:07:00;;;;;;;12.27;4.37;;;;;;;;;;5039943;28;20430;-79
2024/01/30 13:09:26;;;;;;;12.13;5.50;;;;;;;;;;5039454;28;20416;-79
2024/01/30 13:11:52;;;;;;;9.27;5.00;;;;;;;;;;5056366;28;20487;-80
2024/01/30 13:14:19;;;;;;;7.87;3.77;;;;;;;;;;5059653;28;20420;-80
2024/01/30 13:16:45;;;;;;;9.20;4.20;;;;;;;;;;5057793;28;20992;-80
2024/01/30 13:19:11;;;;;;;9.53;4.30;;;;;;;;;;5058782;28;20473;-79
2024/01/30 13:21:37;;;;;;;4.47;3.90;;;;;;;;;;5076887;28;20405;-80
2024/01/30 13:24:03;;;;;;;13.17;6.87;;;;;;;;;;5077210;28;20757;-80
2024/01/30 13:26:30;;;;;;;7.33;4.53;;;;;;;;;;5076579;28;20407;-79
2024/01/30 13:28:56;;;;;;;6.63;4.33;;;;;;;;;;5077361;28;20486;-80
2024/01/30 13:31:23;;;;;;;8.23;4.70;;;;;;;;;;5076877;28;20517;-79
2024/01/30 13:33:49;;;;;;;7.70;4.50;;;;;;;;;;5076796;28;20395;-80
2024/01/30 13:36:15;;;;;;;5.70;4.80;;;;;;;;;;5076524;28;20419;-80
2024/01/30 13:38:41;;;;;;;8.23;5.30;;;;;;;;;;5076792;28;20478;-80
2024/01/30 13:41:07;;;;;;;5.57;4.03;;;;;;;;;;5076735;28;20457;-80
2024/01/30 13:43:33;;;;;;;7.13;5.20;;;;;;;;;;5068275;28;20789;-79
2024/01/30 13:45:59;;;;;;;9.60;6.27;;;;;;;;;;5056659;28;20411;-79
2024/01/30 13:48:25;;;;;;;8.20;5.67;;;;;;;;;;5039411;28;20439;-80
2024/01/30 13:50:52;;;;;;;6.77;5.50;;;;;;;;;;5057279;28;20474;-80
2024/01/30 13:53:19;;;;;;;9.23;4.93;;;;;;;;;;5056246;28;20409;-80
2024/01/30 13:55:45;;;;;;;7.60;5.50;;;;;;;;;;5056467;28;20469;-80
2024/01/30 13:58:10;;;;;;;13.07;6.00;;;;;;;;;;5055999;28;20986;-79
2024/01/30 14:00:37;;;;;;;8.20;4.30;;;;;;;;;;5056125;28;20408;-80
2024/01/30 14:03:03;;;;;;;7.67;6.07;;;;;;;;;;5078080;28;20434;-79
2024/01/30 14:05:29;;;;;;;9.77;5.10;;;;;;;;;;5076901;28;20457;-81
2024/01/30 14:07:55;;;;;;;10.63;6.60;;;;;;;;;;5076389;28;20430;-80
2024/01/30 14:10:21;;;;;;;12.63;6.17;;;;;;;;;;5075802;28;20403;-80
2024/01/30 14:12:50;;;;;;;10.10;5.03;;;;;;;;;;5075921;28;20399;-80
2024/01/30 14:15:19;;;;;;;11.57;6.23;;;;;;;;;;5076098;28;20407;-80
2024/01/30 14:17:48;;;;;;;9.37;6.20;;;;;;;;;;5075720;28;20496;-80
2024/01/30 14:20:14;;;;;;;14.00;6.47;;;;;;;;;;5075633;28;20494;-80
2024/01/30 14:22:40;;;;;;;10.90;6.80;;;;;;;;;;5075444;28;20451;-80
2024/01/30 14:25:06;;;;;;;11.53;4.70;;;;;;;;;;5075505;28;20410;-80
2024/01/30 14:27:32;;;;;;;12.45;6.18;;;;;;;;;;5075579;28;20450;-80
2024/01/30 14:29:58;;;;;;;10.63;7.03;;;;;;;;;;5076285;28;20189;-80